sensor_id;sensor_type;location;lat;lon;timestamp;pressure;altitude;pressure_sealevel;temperature;humidity
7474;BME280;3778;42.572;23.426;2023-02-27T00:00:30;94601.47;;;-146.70;55.93
7474;BME280;3778;42.572;23.426;2023-02-27T00:02:56;94641.06;;;-146.70;55.95
7474;BME280;3778;42.572;23.426;2023-02-27T00:05:23;94632.72;;;-146.70;55.98
7474;BME280;3778;42.572;23.426;2023-02-27T00:07:51;94566.03;;;-146.70;56.24
7474;BME280;3778;42.572;23.426;2023-02-27T00:10:18;94605.63;;;-146.70;55.46
7474;BME280;3778;42.572;23.426;2023-02-27T00:12:45;94591.06;;;-146.70;55.77
7474;BME280;3778;42.572;23.426;2023-02-27T00:15:14;94586.88;;;-146.70;56.26
7474;BME280;3778;42.572;23.426;2023-02-27T00:17:41;94603.56;;;-146.70;56.23
7474;BME280;3778;42.572;23.426;2023-02-27T00:20:11;94561.88;;;-146.70;56.12
7474;BME280;3778;42.572;23.426;2023-02-27T00:22:38;94536.88;;;-146.70;55.38
7474;BME280;3778;42.572;23.426;2023-02-27T00:25:07;94561.88;;;-146.70;55.03
7474;BME280;3778;42.572;23.426;2023-02-27T00:27:35;94534.78;;;-146.70;55.43
7474;BME280;3778;42.572;23.426;2023-02-27T00:30:02;94582.72;;;-146.70;55.76
7474;BME280;3778;42.572;23.426;2023-02-27T00:32:29;94574.38;;;-146.70;56.83
7474;BME280;3778;42.572;23.426;2023-02-27T00:34:56;94632.72;;;-146.70;57.48
7474;BME280;3778;42.572;23.426;2023-02-27T00:37:23;94588.97;;;-146.70;57.25
7474;BME280;3778;42.572;23.426;2023-02-27T00:39:49;94568.13;;;-146.70;56.72
7474;BME280;3778;42.572;23.426;2023-02-27T00:42:17;94570.22;;;-146.70;56.60
7474;BME280;3778;42.572;23.426;2023-02-27T00:44:44;94593.13;;;-146.70;56.71
7474;BME280;3778;42.572;23.426;2023-02-27T00:47:11;94574.38;;;-146.70;56.96
7474;BME280;3778;42.572;23.426;2023-02-27T00:49:38;94574.38;;;-146.70;57.26
7474;BME280;3778;42.572;23.426;2023-02-27T00:52:04;94616.06;;;-146.70;57.32
7474;BME280;3778;42.572;23.426;2023-02-27T00:54:31;94626.47;;;-146.70;57.75
7474;BME280;3778;42.572;23.426;2023-02-27T00:56:58;94616.06;;;-146.70;58.02
7474;BME280;3778;42.572;23.426;2023-02-27T00:59:26;94595.22;;;-146.70;57.62
7474;BME280;3778;42.572;23.426;2023-02-27T01:01:52;94605.63;;;-146.70;57.43
7474;BME280;3778;42.572;23.426;2023-02-27T01:04:19;94553.53;;;-146.70;57.53
7474;BME280;3778;42.572;23.426;2023-02-27T01:06:46;94557.72;;;-146.70;57.22
7474;BME280;3778;42.572;23.426;2023-02-27T01:09:12;94538.94;;;-146.70;56.37
7474;BME280;3778;42.572;23.426;2023-02-27T01:11:39;94530.63;;;-146.70;56.61
7474;BME280;3778;42.572;23.426;2023-02-27T01:14:06;94534.78;;;-146.70;56.93
7474;BME280;3778;42.572;23.426;2023-02-27T01:16:34;94574.38;;;-146.70;56.93
7474;BME280;3778;42.572;23.426;2023-02-27T01:19:01;94549.38;;;-146.70;56.84
7474;BME280;3778;42.572;23.426;2023-02-27T01:21:27;94559.78;;;-146.70;56.38
7474;BME280;3778;42.572;23.426;2023-02-27T01:23:54;94532.69;;;-146.70;56.16
7474;BME280;3778;42.572;23.426;2023-02-27T01:26:21;94566.03;;;-146.70;56.51
7474;BME280;3778;42.572;23.426;2023-02-27T01:28:47;94566.03;;;-146.70;56.63
7474;BME280;3778;42.572;23.426;2023-02-27T01:31:14;94545.19;;;-146.70;56.34
7474;BME280;3778;42.572;23.426;2023-02-27T01:33:42;94591.06;;;-146.70;56.64
7474;BME280;3778;42.572;23.426;2023-02-27T01:36:09;94605.63;;;-146.70;57.16
7474;BME280;3778;42.572;23.426;2023-02-27T01:38:36;94563.97;;;-146.70;56.87
7474;BME280;3778;42.572;23.426;2023-02-27T01:41:03;94518.13;;;-146.70;56.31
7474;BME280;3778;42.572;23.426;2023-02-27T01:43:32;94534.78;;;-146.70;56.37
7474;BME280;3778;42.572;23.426;2023-02-27T01:45:58;94532.69;;;-146.70;56.12
7474;BME280;3778;42.572;23.426;2023-02-27T01:48:29;94511.84;;;-146.70;56.24
7474;BME280;3778;42.572;23.426;2023-02-27T01:51:01;94528.53;;;-146.70;56.61
7474;BME280;3778;42.572;23.426;2023-02-27T01:53:30;94536.88;;;-146.70;57.21
7474;BME280;3778;42.572;23.426;2023-02-27T01:56:01;94549.38;;;-146.70;57.79
7474;BME280;3778;42.572;23.426;2023-02-27T01:58:30;94518.13;;;-146.70;57.33
7474;BME280;3778;42.572;23.426;2023-02-27T02:00:57;94536.88;;;-146.70;57.04
7474;BME280;3778;42.572;23.426;2023-02-27T02:03:27;94524.38;;;-146.70;56.96
7474;BME280;3778;42.572;23.426;2023-02-27T02:05:57;94549.38;;;-146.70;57.21
7474;BME280;3778;42.572;23.426;2023-02-27T02:08:29;94524.38;;;-146.70;56.89
7474;BME280;3778;42.572;23.426;2023-02-27T02:10:57;94516.03;;;-146.70;56.42
7474;BME280;3778;42.572;23.426;2023-02-27T02:13:25;94505.59;;;-146.70;56.45
7474;BME280;3778;42.572;23.426;2023-02-27T02:16:00;94541.03;;;-146.70;56.60
7474;BME280;3778;42.572;23.426;2023-02-27T02:18:37;94543.13;;;-146.70;56.55
7474;BME280;3778;42.572;23.426;2023-02-27T02:21:44;94530.63;;;-146.70;57.17
7474;BME280;3778;42.572;23.426;2023-02-27T02:27:37;94532.69;;;-146.70;61.14
7474;BME280;3778;42.572;23.426;2023-02-27T02:33:51;94645.22;;;-146.70;67.54
7474;BME280;3778;42.572;23.426;2023-02-27T02:37:01;94647.31;;;-146.70;70.62
7474;BME280;3778;42.572;23.426;2023-02-27T02:40:02;94693.16;;;-146.70;72.19
7474;BME280;3778;42.572;23.426;2023-02-27T02:42:35;94711.91;;;-146.70;72.64
7474;BME280;3778;42.572;23.426;2023-02-27T02:45:11;94728.59;;;-146.70;73.77
7474;BME280;3778;42.572;23.426;2023-02-27T02:47:48;94711.91;;;-146.70;73.30
7474;BME280;3778;42.572;23.426;2023-02-27T02:50:21;94714.00;;;-146.70;74.82
7474;BME280;3778;42.572;23.426;2023-02-27T02:52:54;94739.00;;;-146.70;75.19
7474;BME280;3778;42.572;23.426;2023-02-27T02:55:31;94782.78;;;-146.70;76.10
7474;BME280;3778;42.572;23.426;2023-02-27T02:58:04;94745.25;;;-146.70;77.10
7474;BME280;3778;42.572;23.426;2023-02-27T03:00:38;94751.53;;;-146.70;77.60
7474;BME280;3778;42.572;23.426;2023-02-27T03:03:12;94732.75;;;-146.70;77.77
7474;BME280;3778;42.572;23.426;2023-02-27T03:05:43;94797.38;;;-146.70;78.95
7474;BME280;3778;42.572;23.426;2023-02-27T03:08:16;94795.28;;;-146.70;79.54
7474;BME280;3778;42.572;23.426;2023-02-27T03:10:49;94795.28;;;-146.70;80.99
7474;BME280;3778;42.572;23.426;2023-02-27T03:13:28;94803.63;;;-146.70;81.42
7474;BME280;3778;42.572;23.426;2023-02-27T03:16:03;94832.78;;;-146.70;79.81
7474;BME280;3778;42.572;23.426;2023-02-27T03:18:33;94757.78;;;-146.70;80.54
7474;BME280;3778;42.572;23.426;2023-02-27T03:21:05;94809.88;;;-146.70;81.07
7474;BME280;3778;42.572;23.426;2023-02-27T03:23:36;94791.13;;;-146.70;80.89
7474;BME280;3778;42.572;23.426;2023-02-27T03:26:09;94828.63;;;-146.70;79.70
7474;BME280;3778;42.572;23.426;2023-02-27T03:28:40;94797.38;;;-146.70;78.71
7474;BME280;3778;42.572;23.426;2023-02-27T03:31:16;94824.47;;;-146.70;78.42
7474;BME280;3778;42.572;23.426;2023-02-27T03:33:48;94774.44;;;-146.70;77.99
7474;BME280;3778;42.572;23.426;2023-02-27T03:36:22;94782.78;;;-146.70;77.59
7474;BME280;3778;42.572;23.426;2023-02-27T03:38:57;94774.44;;;-146.70;78.85
7474;BME280;3778;42.572;23.426;2023-02-27T03:41:32;94811.94;;;-146.70;79.72
7474;BME280;3778;42.572;23.426;2023-02-27T03:44:07;94814.03;;;-146.70;77.99
7474;BME280;3778;42.572;23.426;2023-02-27T03:46:36;94780.69;;;-146.70;77.71
7474;BME280;3778;42.572;23.426;2023-02-27T03:49:03;94780.69;;;-146.70;79.33
7474;BME280;3778;42.572;23.426;2023-02-27T03:51:30;94801.53;;;-146.70;80.23
7474;BME280;3778;42.572;23.426;2023-02-27T03:54:01;94797.38;;;-146.70;80.43
7474;BME280;3778;42.572;23.426;2023-02-27T03:56:37;94770.28;;;-146.70;78.62
7474;BME280;3778;42.572;23.426;2023-02-27T03:59:06;94764.03;;;-146.70;78.58
7474;BME280;3778;42.572;23.426;2023-02-27T04:01:33;94759.84;;;-146.70;77.69
7474;BME280;3778;42.572;23.426;2023-02-27T04:04:03;94757.78;;;-146.70;79.00
7474;BME280;3778;42.572;23.426;2023-02-27T04:06:31;94782.78;;;-146.70;77.64
7474;BME280;3778;42.572;23.426;2023-02-27T04:09:21;94761.94;;;-146.70;77.43
7474;BME280;3778;42.572;23.426;2023-02-27T04:12:08;94782.78;;;-146.70;78.87
7474;BME280;3778;42.572;23.426;2023-02-27T04:14:45;94782.78;;;-146.70;79.70
7474;BME280;3778;42.572;23.426;2023-02-27T04:17:22;94761.94;;;-146.70;80.09
7474;BME280;3778;42.572;23.426;2023-02-27T04:20:12;94743.19;;;-146.70;77.84
7474;BME280;3778;42.572;23.426;2023-02-27T04:22:46;94749.44;;;-146.70;76.78
7474;BME280;3778;42.572;23.426;2023-02-27T04:25:34;94726.50;;;-146.70;78.50
7474;BME280;3778;42.572;23.426;2023-02-27T04:28:10;94782.78;;;-146.70;77.31
7474;BME280;3778;42.572;23.426;2023-02-27T04:30:45;94795.28;;;-146.70;76.81
7474;BME280;3778;42.572;23.426;2023-02-27T04:33:24;94766.09;;;-146.70;78.08
7474;BME280;3778;42.572;23.426;2023-02-27T04:35:56;94861.97;;;-146.70;76.39
7474;BME280;3778;42.572;23.426;2023-02-27T04:38:27;94918.25;;;-146.70;77.89
7474;BME280;3778;42.572;23.426;2023-02-27T04:40:57;94930.75;;;-146.70;79.16
7474;BME280;3778;42.572;23.426;2023-02-27T04:43:27;94951.59;;;-146.70;79.51
7474;BME280;3778;42.572;23.426;2023-02-27T04:45:58;94987.03;;;-146.70;79.95
7474;BME280;3778;42.572;23.426;2023-02-27T04:48:29;94999.53;;;-146.70;80.09
7474;BME280;3778;42.572;23.426;2023-02-27T04:51:03;94964.09;;;-146.70;80.99
7474;BME280;3778;42.572;23.426;2023-02-27T04:53:41;94964.09;;;-146.70;80.76
7474;BME280;3778;42.572;23.426;2023-02-27T04:56:14;95005.78;;;-146.70;81.11
7474;BME280;3778;42.572;23.426;2023-02-27T04:58:46;94953.66;;;-146.70;81.46
7474;BME280;3778;42.572;23.426;2023-02-27T05:01:17;94970.34;;;-146.70;81.63
7474;BME280;3778;42.572;23.426;2023-02-27T05:03:47;94959.94;;;-146.70;81.19
7474;BME280;3778;42.572;23.426;2023-02-27T05:06:18;94974.50;;;-146.70;81.58
7474;BME280;3778;42.572;23.426;2023-02-27T05:08:51;94957.84;;;-146.70;81.80
7474;BME280;3778;42.572;23.426;2023-02-27T05:11:24;94991.19;;;-146.70;81.12
7474;BME280;3778;42.572;23.426;2023-02-27T05:13:57;94989.09;;;-146.70;81.50
7474;BME280;3778;42.572;23.426;2023-02-27T05:16:30;94987.03;;;-146.70;81.07
7474;BME280;3778;42.572;23.426;2023-02-27T05:18:59;94974.50;;;-146.70;81.40
7474;BME280;3778;42.572;23.426;2023-02-27T05:21:30;95032.88;;;-146.70;81.73
7474;BME280;3778;42.572;23.426;2023-02-27T05:24:07;95020.38;;;-146.70;81.16
7474;BME280;3778;42.572;23.426;2023-02-27T05:26:52;94980.75;;;-146.70;80.99
7474;BME280;3778;42.572;23.426;2023-02-27T05:29:29;95014.13;;;-146.70;81.30
7474;BME280;3778;42.572;23.426;2023-02-27T05:32:03;94999.53;;;-146.70;81.41
7474;BME280;3778;42.572;23.426;2023-02-27T05:34:36;94989.09;;;-146.70;81.55
7474;BME280;3778;42.572;23.426;2023-02-27T05:37:09;95016.19;;;-146.70;81.70
7474;BME280;3778;42.572;23.426;2023-02-27T05:39:38;95018.28;;;-146.70;82.86
7474;BME280;3778;42.572;23.426;2023-02-27T05:42:10;95007.84;;;-146.70;83.07
7474;BME280;3778;42.572;23.426;2023-02-27T05:44:44;95014.13;;;-146.70;82.58
7474;BME280;3778;42.572;23.426;2023-02-27T05:47:14;95016.19;;;-146.70;81.92
7474;BME280;3778;42.572;23.426;2023-02-27T05:49:46;95001.59;;;-146.70;81.80
7474;BME280;3778;42.572;23.426;2023-02-27T05:52:19;95037.03;;;-146.70;82.10
7474;BME280;3778;42.572;23.426;2023-02-27T05:54:51;94870.31;;;-146.70;82.23
7474;BME280;3778;42.572;23.426;2023-02-27T05:57:23;94980.75;;;-146.70;81.85
7474;BME280;3778;42.572;23.426;2023-02-27T05:59:58;94970.34;;;-146.70;81.60
7474;BME280;3778;42.572;23.426;2023-02-27T06:02:27;94970.34;;;-146.70;80.51
7474;BME280;3778;42.572;23.426;2023-02-27T06:04:54;94984.94;;;-146.70;80.85
7474;BME280;3778;42.572;23.426;2023-02-27T06:07:21;94886.97;;;-146.70;81.93
7474;BME280;3778;42.572;23.426;2023-02-27T06:09:48;94959.94;;;-146.70;80.16
7474;BME280;3778;42.572;23.426;2023-02-27T06:12:15;94905.75;;;-146.70;78.60
7474;BME280;3778;42.572;23.426;2023-02-27T06:14:43;94884.91;;;-146.70;79.23
7474;BME280;3778;42.572;23.426;2023-02-27T06:17:11;94932.84;;;-146.70;80.21
7474;BME280;3778;42.572;23.426;2023-02-27T06:19:38;94928.66;;;-146.70;77.74
7474;BME280;3778;42.572;23.426;2023-02-27T06:22:05;94932.84;;;-146.70;77.57
7474;BME280;3778;42.572;23.426;2023-02-27T06:24:32;94914.06;;;-146.70;77.60
7474;BME280;3778;42.572;23.426;2023-02-27T06:26:58;94912.00;;;-146.70;78.02
7474;BME280;3778;42.572;23.426;2023-02-27T06:29:25;94955.75;;;-146.70;78.00
7474;BME280;3778;42.572;23.426;2023-02-27T06:31:52;94945.34;;;-146.70;77.11
7474;BME280;3778;42.572;23.426;2023-02-27T06:34:20;94953.66;;;-146.70;77.77
7474;BME280;3778;42.572;23.426;2023-02-27T06:36:47;94893.22;;;-146.70;77.92
7474;BME280;3778;42.572;23.426;2023-02-27T06:39:13;94895.31;;;-146.70;76.97
7474;BME280;3778;42.572;23.426;2023-02-27T06:41:41;94895.31;;;-146.70;77.29
7474;BME280;3778;42.572;23.426;2023-02-27T06:44:07;94914.06;;;-146.70;77.77
7474;BME280;3778;42.572;23.426;2023-02-27T06:46:34;94916.16;;;-146.70;76.27
7474;BME280;3778;42.572;23.426;2023-02-27T06:49:01;94886.97;;;-146.70;75.99
7474;BME280;3778;42.572;23.426;2023-02-27T06:51:29;94926.56;;;-146.70;75.96
7474;BME280;3778;42.572;23.426;2023-02-27T06:53:56;94874.47;;;-146.70;76.63
7474;BME280;3778;42.572;23.426;2023-02-27T06:56:22;94905.75;;;-146.70;75.66
7474;BME280;3778;42.572;23.426;2023-02-27T06:58:49;94909.91;;;-146.70;76.00
7474;BME280;3778;42.572;23.426;2023-02-27T07:01:16;94901.56;;;-146.70;76.61
7474;BME280;3778;42.572;23.426;2023-02-27T07:03:43;94928.66;;;-146.70;76.22
7474;BME280;3778;42.572;23.426;2023-02-27T07:06:10;94884.91;;;-146.70;77.04
7474;BME280;3778;42.572;23.426;2023-02-27T07:08:39;94893.22;;;-146.70;76.20
7474;BME280;3778;42.572;23.426;2023-02-27T07:11:05;94897.41;;;-146.70;76.01
7474;BME280;3778;42.572;23.426;2023-02-27T07:13:32;94878.66;;;-146.70;76.56
7474;BME280;3778;42.572;23.426;2023-02-27T07:15:59;94889.06;;;-146.70;76.37
7474;BME280;3778;42.572;23.426;2023-02-27T07:18:26;94857.81;;;-146.70;75.68
7474;BME280;3778;42.572;23.426;2023-02-27T07:20:53;94795.28;;;-146.70;76.23
7474;BME280;3778;42.572;23.426;2023-02-27T07:23:20;94828.63;;;-146.70;74.63
7474;BME280;3778;42.572;23.426;2023-02-27T07:25:48;94811.94;;;-146.70;74.22
7474;BME280;3778;42.572;23.426;2023-02-27T07:28:15;94805.69;;;-146.70;73.70
7474;BME280;3778;42.572;23.426;2023-02-27T07:30:43;94782.78;;;-146.70;73.41
7474;BME280;3778;42.572;23.426;2023-02-27T07:33:10;94836.97;;;-146.70;73.34
7474;BME280;3778;42.572;23.426;2023-02-27T07:35:36;94824.47;;;-146.70;73.46
7474;BME280;3778;42.572;23.426;2023-02-27T07:38:03;94814.03;;;-146.70;72.81
7474;BME280;3778;42.572;23.426;2023-02-27T07:40:30;94807.78;;;-146.70;72.72
7474;BME280;3778;42.572;23.426;2023-02-27T07:42:58;94816.13;;;-146.70;71.55
7474;BME280;3778;42.572;23.426;2023-02-27T07:45:24;94784.84;;;-146.70;72.73
7474;BME280;3778;42.572;23.426;2023-02-27T07:47:51;94801.53;;;-146.70;70.76
7474;BME280;3778;42.572;23.426;2023-02-27T07:50:18;94828.63;;;-146.70;71.84
7474;BME280;3778;42.572;23.426;2023-02-27T07:52:45;94828.63;;;-146.70;72.61
7474;BME280;3778;42.572;23.426;2023-02-27T07:55:12;94830.72;;;-146.70;71.57
7474;BME280;3778;42.572;23.426;2023-02-27T07:57:39;94797.38;;;-146.70;72.44
7474;BME280;3778;42.572;23.426;2023-02-27T08:00:09;94818.22;;;-146.70;71.64
7474;BME280;3778;42.572;23.426;2023-02-27T08:02:36;94803.63;;;-146.70;69.85
7474;BME280;3778;42.572;23.426;2023-02-27T08:05:04;94786.94;;;-146.70;69.85
7474;BME280;3778;42.572;23.426;2023-02-27T08:07:31;94828.63;;;-146.70;69.70
7474;BME280;3778;42.572;23.426;2023-02-27T08:09:57;94801.53;;;-146.70;69.46
7474;BME280;3778;42.572;23.426;2023-02-27T08:12:24;94799.44;;;-146.70;69.99
7474;BME280;3778;42.572;23.426;2023-02-27T08:14:51;94803.63;;;-146.70;69.88
7474;BME280;3778;42.572;23.426;2023-02-27T08:17:19;94814.03;;;-146.70;68.77
7474;BME280;3778;42.572;23.426;2023-02-27T08:19:46;94791.13;;;-146.70;69.11
7474;BME280;3778;42.572;23.426;2023-02-27T08:22:12;94824.47;;;-146.70;68.57
7474;BME280;3778;42.572;23.426;2023-02-27T08:24:39;94793.19;;;-146.70;69.43
7474;BME280;3778;42.572;23.426;2023-02-27T08:27:06;94795.28;;;-146.70;69.52
7474;BME280;3778;42.572;23.426;2023-02-27T08:29:33;94793.19;;;-146.70;69.47
7474;BME280;3778;42.572;23.426;2023-02-27T08:32:01;94797.38;;;-146.70;69.62
7474;BME280;3778;42.572;23.426;2023-02-27T08:34:30;94807.78;;;-146.70;68.77
7474;BME280;3778;42.572;23.426;2023-02-27T08:36:57;94761.94;;;-146.70;68.93
7474;BME280;3778;42.572;23.426;2023-02-27T08:39:23;94759.84;;;-146.70;68.62
7474;BME280;3778;42.572;23.426;2023-02-27T08:41:50;94784.84;;;-146.70;68.34
7474;BME280;3778;42.572;23.426;2023-02-27T08:44:17;94757.78;;;-146.70;68.40
7474;BME280;3778;42.572;23.426;2023-02-27T08:46:44;94741.09;;;-146.70;67.92
7474;BME280;3778;42.572;23.426;2023-02-27T08:49:11;94724.44;;;-146.70;68.62
7474;BME280;3778;42.572;23.426;2023-02-27T08:51:39;94691.09;;;-146.70;66.77
7474;BME280;3778;42.572;23.426;2023-02-27T08:54:06;94678.56;;;-146.70;67.01
7474;BME280;3778;42.572;23.426;2023-02-27T08:56:32;94693.16;;;-146.70;67.81
7474;BME280;3778;42.572;23.426;2023-02-27T08:58:59;94680.66;;;-146.70;66.97
7474;BME280;3778;42.572;23.426;2023-02-27T09:01:27;94736.94;;;-146.70;66.20
7474;BME280;3778;42.572;23.426;2023-02-27T09:03:59;94724.44;;;-146.70;65.46
7474;BME280;3778;42.572;23.426;2023-02-27T09:06:26;94714.00;;;-146.70;65.82
7474;BME280;3778;42.572;23.426;2023-02-27T09:08:54;94666.06;;;-146.70;66.46
7474;BME280;3778;42.572;23.426;2023-02-27T09:11:21;94684.81;;;-146.70;65.48
7474;BME280;3778;42.572;23.426;2023-02-27T09:13:47;94726.50;;;-146.70;65.70
7474;BME280;3778;42.572;23.426;2023-02-27T09:16:15;94693.16;;;-146.70;65.99
7474;BME280;3778;42.572;23.426;2023-02-27T09:18:42;94716.09;;;-146.70;65.69
7474;BME280;3778;42.572;23.426;2023-02-27T09:21:09;94707.75;;;-146.70;65.88
7474;BME280;3778;42.572;23.426;2023-02-27T09:23:36;94659.81;;;-146.70;66.54
7474;BME280;3778;42.572;23.426;2023-02-27T09:26:04;94709.84;;;-146.70;65.54
7474;BME280;3778;42.572;23.426;2023-02-27T09:28:33;94689.00;;;-146.70;65.59
7474;BME280;3778;42.572;23.426;2023-02-27T09:31:00;94603.56;;;-146.70;66.00
7474;BME280;3778;42.572;23.426;2023-02-27T09:33:27;94666.06;;;-146.70;64.56
7474;BME280;3778;42.572;23.426;2023-02-27T09:35:53;94668.16;;;-146.70;64.79
7474;BME280;3778;42.572;23.426;2023-02-27T09:38:20;94620.22;;;-146.70;64.94
7474;BME280;3778;42.572;23.426;2023-02-27T09:40:49;94632.72;;;-146.70;64.17
7474;BME280;3778;42.572;23.426;2023-02-27T09:43:20;94645.22;;;-146.70;64.60
7474;BME280;3778;42.572;23.426;2023-02-27T09:45:52;94655.66;;;-146.70;64.04
7474;BME280;3778;42.572;23.426;2023-02-27T09:48:27;94653.56;;;-146.70;64.79
7474;BME280;3778;42.572;23.426;2023-02-27T09:50:56;94657.72;;;-146.70;64.02
7474;BME280;3778;42.572;23.426;2023-02-27T09:53:25;94641.06;;;-146.70;64.18
7474;BME280;3778;42.572;23.426;2023-02-27T09:55:59;94634.81;;;-146.70;63.93
7474;BME280;3778;42.572;23.426;2023-02-27T09:58:42;94638.97;;;-146.70;63.61
7474;BME280;3778;42.572;23.426;2023-02-27T10:01:14;94574.38;;;-146.70;63.50
7474;BME280;3778;42.572;23.426;2023-02-27T10:04:02;94547.28;;;-146.70;62.49
7474;BME280;3778;42.572;23.426;2023-02-27T10:06:37;94536.88;;;-146.70;62.13
7474;BME280;3778;42.572;23.426;2023-02-27T10:09:30;94530.63;;;-146.70;62.05
7474;BME280;3778;42.572;23.426;2023-02-27T10:12:08;94513.94;;;-146.70;61.07
7474;BME280;3778;42.572;23.426;2023-02-27T10:14:43;94495.19;;;-146.70;62.17
7474;BME280;3778;42.572;23.426;2023-02-27T10:17:15;94497.28;;;-146.70;60.16
7474;BME280;3778;42.572;23.426;2023-02-27T10:19:45;94549.38;;;-146.70;60.32
7474;BME280;3778;42.572;23.426;2023-02-27T10:22:18;94484.78;;;-146.70;61.07
7474;BME280;3778;42.572;23.426;2023-02-27T10:24:49;94516.03;;;-146.70;61.04
7474;BME280;3778;42.572;23.426;2023-02-27T10:27:19;94555.63;;;-146.70;61.01
7474;BME280;3778;42.572;23.426;2023-02-27T10:29:47;94563.97;;;-146.70;61.47
7474;BME280;3778;42.572;23.426;2023-02-27T10:32:18;94551.47;;;-146.70;61.88
7474;BME280;3778;42.572;23.426;2023-02-27T10:34:49;94591.06;;;-146.70;62.12
7474;BME280;3778;42.572;23.426;2023-02-27T10:37:20;94551.47;;;-146.70;62.19
7474;BME280;3778;42.572;23.426;2023-02-27T10:39:52;94428.50;;;-146.70;62.43
7474;BME280;3778;42.572;23.426;2023-02-27T10:42:21;94555.63;;;-146.70;62.58
7474;BME280;3778;42.572;23.426;2023-02-27T10:44:50;94541.03;;;-146.70;62.85
7474;BME280;3778;42.572;23.426;2023-02-27T10:47:20;94549.38;;;-146.70;62.56
7474;BME280;3778;42.572;23.426;2023-02-27T10:49:47;94582.72;;;-146.70;63.31
7474;BME280;3778;42.572;23.426;2023-02-27T10:52:15;94543.13;;;-146.70;62.23
7474;BME280;3778;42.572;23.426;2023-02-27T10:54:43;94607.72;;;-146.70;62.63
7474;BME280;3778;42.572;23.426;2023-02-27T10:57:25;94576.47;;;-146.70;62.82
7474;BME280;3778;42.572;23.426;2023-02-27T10:59:58;94547.28;;;-146.70;63.10
7474;BME280;3778;42.572;23.426;2023-02-27T11:02:30;94530.63;;;-146.70;62.48
7474;BME280;3778;42.572;23.426;2023-02-27T11:04:58;94534.78;;;-146.70;62.31
7474;BME280;3778;42.572;23.426;2023-02-27T11:07:29;94566.03;;;-146.70;63.16
7474;BME280;3778;42.572;23.426;2023-02-27T11:10:02;94551.47;;;-146.70;63.13
7474;BME280;3778;42.572;23.426;2023-02-27T11:12:31;94572.28;;;-146.70;63.15
7474;BME280;3778;42.572;23.426;2023-02-27T11:15:02;94551.47;;;-146.70;63.54
7474;BME280;3778;42.572;23.426;2023-02-27T11:17:46;94557.72;;;-146.70;63.47
7474;BME280;3778;42.572;23.426;2023-02-27T11:20:33;94570.22;;;-146.70;62.73
7474;BME280;3778;42.572;23.426;2023-02-27T11:23:03;94561.88;;;-146.70;62.51
7474;BME280;3778;42.572;23.426;2023-02-27T11:25:30;94478.53;;;-146.70;62.60
7474;BME280;3778;42.572;23.426;2023-02-27T11:28:12;94476.44;;;-146.70;61.22
7474;BME280;3778;42.572;23.426;2023-02-27T11:30:41;94422.25;;;-146.70;59.63
7474;BME280;3778;42.572;23.426;2023-02-27T11:33:16;94370.16;;;-146.70;59.47
7474;BME280;3778;42.572;23.426;2023-02-27T11:35:49;94353.50;;;-146.70;57.95
7474;BME280;3778;42.572;23.426;2023-02-27T11:38:19;94332.66;;;-146.70;58.99
7474;BME280;3778;42.572;23.426;2023-02-27T11:40:51;94320.16;;;-146.70;58.15
7474;BME280;3778;42.572;23.426;2023-02-27T11:43:20;94378.50;;;-146.70;57.84
7474;BME280;3778;42.572;23.426;2023-02-27T11:45:53;94376.41;;;-146.70;58.26
7474;BME280;3778;42.572;23.426;2023-02-27T11:48:23;94418.09;;;-146.70;57.89
7474;BME280;3778;42.572;23.426;2023-02-27T11:51:05;94434.75;;;-146.70;59.31
7474;BME280;3778;42.572;23.426;2023-02-27T11:56:29;94474.34;;;-146.70;60.23
7474;BME280;3778;42.572;23.426;2023-02-27T11:59:01;94484.78;;;-146.70;60.46
7474;BME280;3778;42.572;23.426;2023-02-27T12:01:37;94507.69;;;-146.70;61.21
7474;BME280;3778;42.572;23.426;2023-02-27T12:04:09;94532.69;;;-146.70;63.37
7474;BME280;3778;42.572;23.426;2023-02-27T12:06:45;94532.69;;;-146.70;65.79
7474;BME280;3778;42.572;23.426;2023-02-27T12:09:23;94532.69;;;-146.70;66.79
7474;BME280;3778;42.572;23.426;2023-02-27T12:11:55;94576.47;;;-146.70;70.16
7474;BME280;3778;42.572;23.426;2023-02-27T12:14:25;94580.63;;;-146.70;68.80
7474;BME280;3778;42.572;23.426;2023-02-27T12:17:03;94536.88;;;-146.70;69.68
7474;BME280;3778;42.572;23.426;2023-02-27T12:19:37;94549.38;;;-146.70;70.77
7474;BME280;3778;42.572;23.426;2023-02-27T12:22:16;94555.63;;;-146.70;69.67
7474;BME280;3778;42.572;23.426;2023-02-27T12:24:47;94528.53;;;-146.70;70.93
7474;BME280;3778;42.572;23.426;2023-02-27T12:27:19;94566.03;;;-146.70;69.18
7474;BME280;3778;42.572;23.426;2023-02-27T12:29:49;94559.78;;;-146.70;70.42
7474;BME280;3778;42.572;23.426;2023-02-27T12:32:22;94551.47;;;-146.70;69.26
7474;BME280;3778;42.572;23.426;2023-02-27T12:34:53;94524.38;;;-146.70;66.97
7474;BME280;3778;42.572;23.426;2023-02-27T12:37:22;94574.38;;;-146.70;68.03
7474;BME280;3778;42.572;23.426;2023-02-27T12:39:51;94509.78;;;-146.70;69.95
7474;BME280;3778;42.572;23.426;2023-02-27T12:42:31;94486.84;;;-146.70;74.10
7474;BME280;3778;42.572;23.426;2023-02-27T12:45:21;94495.19;;;-146.70;72.57
7474;BME280;3778;42.572;23.426;2023-02-27T12:48:02;94474.34;;;-146.70;74.33
7474;BME280;3778;42.572;23.426;2023-02-27T12:50:43;94259.72;;;-146.70;72.49
7474;BME280;3778;42.572;23.426;2023-02-27T12:53:23;94222.22;;;-146.70;62.85
7474;BME280;3778;42.572;23.426;2023-02-27T12:55:56;94149.28;;;-146.70;64.03
7474;BME280;3778;42.572;23.426;2023-02-27T12:58:32;94232.63;;;-146.70;63.66
7474;BME280;3778;42.572;23.426;2023-02-27T13:01:05;94245.13;;;-146.70;65.63
7474;BME280;3778;42.572;23.426;2023-02-27T13:03:46;94347.25;;;-146.70;63.63
7474;BME280;3778;42.572;23.426;2023-02-27T13:06:22;94363.91;;;-146.70;62.90
7474;BME280;3778;42.572;23.426;2023-02-27T13:09:10;94363.91;;;-146.70;62.66
7474;BME280;3778;42.572;23.426;2023-02-27T13:12:02;94384.75;;;-146.70;63.74
7474;BME280;3778;42.572;23.426;2023-02-27T13:14:40;94393.09;;;-146.70;65.97
7474;BME280;3778;42.572;23.426;2023-02-27T13:17:17;94395.16;;;-146.70;67.91
7474;BME280;3778;42.572;23.426;2023-02-27T13:19:50;94418.09;;;-146.70;63.26